This is the latest recevied weather packets stored in our database for station/object KI5RKU-09. If no packets are shown the sender has not sent any weather packets the latest 10 day(s).
| Time | Temp. | Humidity | Pressure | Rain* | Wind** | Luminosity | Snow |
|---|---|---|---|---|---|---|---|
| 1777059326 | 30.56° C | 56% | 1005.8 hPa | 0 mm | - | 265 W/m² | - |
| 1777057528 | 29.44° C | 59% | 1006.1 hPa | 0 mm | - | 88 W/m² | - |
| 1777056927 | 29.44° C | 60% | 1006.2 hPa | 0 mm | - | 211 W/m² | - |
| 1777056028 | 28.89° C | 61% | 1006.4 hPa | 0 mm | - | 98 W/m² | - |
| 1777055727 | 28.89° C | 61% | 1006.4 hPa | 0 mm | - | 155 W/m² | - |
| 1777054542 | 28.33° C | 63% | 1006.5 hPa | 0 mm | - | 98 W/m² | - |
| 1777052427 | 27.22° C | 66% | 1006.8 hPa | 0 mm | - | 118 W/m² | - |
| 1777052127 | 27.22° C | 67% | 1006.8 hPa | 0 mm | - | 107 W/m² | - |
| 1777050942 | 27.22° C | 68% | 1007 hPa | 0 mm | - | 86 W/m² | - |
| 1777047928 | 25.56° C | 73% | 1007.4 hPa | 0 mm | - | 125 W/m² | - |
| 1777047343 | 25.56° C | 73% | 1007.4 hPa | 0 mm | - | 100 W/m² | - |
| 1777046730 | 25.56° C | 75% | 1007.2 hPa | 0 mm | - | 123 W/m² | - |
| 1777046442 | 25.56° C | 75% | 1007.2 hPa | 0 mm | - | 72 W/m² | - |
| 1777045565 | 24.44° C | 77% | 1007.2 hPa | 0 mm | - | 72 W/m² | - |
| 1777044328 | 24.44° C | 78% | 1007.1 hPa | 0 mm | - | 79 W/m² | - |
| 1777040428 | 23.33° C | 81% | 1006.9 hPa | 0 mm | - | 53 W/m² | - |
| 1777039828 | 22.78° C | 82% | 1006.9 hPa | 0 mm | - | 60 W/m² | - |
| 1777034428 | 21.67° C | 84% | 1006.2 hPa | 0 mm | - | 12 W/m² | - |
| 1777034130 | 21.67° C | 84% | 1006.2 hPa | 0 mm | - | 11 W/m² | - |
| 1777033527 | 21.67° C | 84% | 1006.3 hPa | 0 mm | - | 0 W/m² | - |
| 1777032059 | 21.67° C | 83% | 1005.9 hPa | 0 mm | - | 0 W/m² | - |
| 1777031427 | 21.67° C | 82% | 1005.8 hPa | 0 mm | - | 0 W/m² | - |
| 1777031143 | 21.67° C | 82% | 1005.8 hPa | 0 mm | - | 0 W/m² | - |
| 1777029627 | 21.67° C | 82% | 1005.6 hPa | 0 mm | - | 0 W/m² | - |
| 1777029027 | 21.67° C | 82% | 1005.7 hPa | 0 mm | - | 0 W/m² | - |
* Rain latest hour (hover to see other rain measurements)
** Current wind speed in m/s (hover to see current wind gust speed)